Time;durP1;ratioP1;P1;durP2;ratioP2;P2;SDS_P1;SDS_P2;PMS_P1;PMS_P2;Temp;Humidity;BMP_temperature;BMP_pressure;BME280_temperature;BME280_humidity;BME280_pressure;Samples;Min_cycle;Max_cycle;Signal;HPM_P1;HPM_P2
2021/04/11 00:03:42;;;;;;;36.40;25.62;;;;;;;8.02;100.00;97779.33;3712680;79;43738;-27
2021/04/11 00:08:48;;;;;;;35.45;25.08;;;;;;;7.99;100.00;97765.75;3717374;79;43708;-27
2021/04/11 00:13:56;;;;;;;32.90;24.05;;;;;;;8.00;100.00;97767.44;3716289;79;43302;-27
2021/04/11 00:19:03;;;;;;;32.05;23.22;;;;;;;7.99;100.00;97765.75;3713418;79;43092;-27
2021/04/11 00:24:10;;;;;;;31.97;22.50;;;;;;;8.05;100.00;97768.80;3726618;79;43681;-27
2021/04/11 00:29:15;;;;;;;29.32;22.02;;;;;;;8.00;100.00;97751.83;3738760;79;43685;-27
2021/04/11 00:34:21;;;;;;;27.25;19.32;;;;;;;8.01;100.00;97749.48;3704387;79;43373;-27
2021/04/11 00:39:27;;;;;;;27.90;19.00;;;;;;;8.01;100.00;97742.30;3708589;79;77346;-27
2021/04/11 00:44:34;;;;;;;23.97;17.93;;;;;;;8.10;100.00;97741.83;3712152;79;43689;-27
2021/04/11 00:49:44;;;;;;;23.62;17.62;;;;;;;8.16;100.00;97735.80;3708993;79;44045;-27
2021/04/11 00:54:50;;;;;;;24.05;18.87;;;;;;;8.20;100.00;97725.58;3709587;79;44198;-26
2021/04/11 00:59:57;;;;;;;26.10;19.27;;;;;;;8.18;100.00;97724.41;3705135;79;43363;-28
2021/04/11 01:05:09;;;;;;;26.20;18.45;;;;;;;8.18;100.00;97716.84;3708965;79;43330;-26
2021/04/11 01:10:19;;;;;;;24.67;17.80;;;;;;;8.24;100.00;97707.30;3711095;79;43370;-28
2021/04/11 01:15:29;;;;;;;23.02;16.70;;;;;;;8.26;100.00;97706.16;3708544;79;43373;-28
2021/04/11 01:20:36;;;;;;;21.13;15.60;;;;;;;8.33;100.00;97703.14;3707986;79;43345;-28
2021/04/11 01:25:43;;;;;;;21.13;15.20;;;;;;;8.35;100.00;97700.80;3697100;79;43731;-28
2021/04/11 01:30:55;;;;;;;19.90;14.28;;;;;;;8.38;100.00;97685.19;3708132;79;44411;-28
2021/04/11 01:36:02;;;;;;;21.77;14.60;;;;;;;8.42;100.00;97684.36;3709018;79;43357;-28
2021/04/11 01:41:13;;;;;;;18.75;14.65;;;;;;;8.47;100.00;97684.71;3711169;79;43144;-28
2021/04/11 01:46:21;;;;;;;19.02;13.83;;;;;;;8.39;100.00;97673.97;3709722;79;43714;-28
2021/04/11 01:51:30;;;;;;;17.55;12.50;;;;;;;8.46;100.00;97666.44;3713649;78;43368;-28
2021/04/11 01:56:38;;;;;;;14.90;12.23;;;;;;;8.52;100.00;97659.59;3721978;78;43964;-28
2021/04/11 02:01:49;;;;;;;15.48;11.73;;;;;;;8.55;100.00;97653.05;3716233;78;44637;-28
2021/04/11 02:06:58;;;;;;;14.13;11.40;;;;;;;8.58;100.00;97652.72;3696206;78;43765;-28
2021/04/11 02:12:10;;;;;;;12.70;10.32;;;;;;;8.58;100.00;97639.29;3713764;78;26992;-28
2021/04/11 02:17:18;;;;;;;12.75;10.50;;;;;;;8.59;100.00;97637.77;3718542;78;44052;-28
2021/04/11 02:22:27;;;;;;;15.78;10.15;;;;;;;8.58;100.00;97630.72;3742408;78;43411;-26
2021/04/11 02:27:35;;;;;;;11.23;9.10;;;;;;;8.59;100.00;97624.34;3721874;78;75711;-26
2021/04/11 02:32:42;;;;;;;11.55;9.20;;;;;;;8.59;100.00;97624.83;3734863;78;43995;-26
2021/04/11 02:37:52;;;;;;;10.32;9.00;;;;;;;8.59;100.00;97620.80;3745668;78;43650;-28
2021/04/11 02:43:01;;;;;;;11.30;9.15;;;;;;;8.59;100.00;97615.44;3737990;78;44054;-28
2021/04/11 02:48:12;;;;;;;10.05;8.43;;;;;;;8.58;100.00;97617.30;3734496;78;44423;-27
2021/04/11 02:53:22;;;;;;;12.30;8.45;;;;;;;8.59;100.00;97621.66;3738536;78;26470;-29
2021/04/11 02:58:30;;;;;;;11.18;7.67;;;;;;;8.60;100.00;97615.28;3737803;78;43719;-26
2021/04/11 03:03:37;;;;;;;10.27;7.60;;;;;;;8.59;100.00;97608.23;3623481;80;43869;-26
2021/04/11 03:08:46;;;;;;;9.27;7.50;;;;;;;8.63;100.00;97610.08;3742066;78;43558;-26
2021/04/11 03:13:57;;;;;;;9.65;6.87;;;;;;;8.62;100.00;97605.22;3625576;80;43671;-27
2021/04/11 03:19:06;;;;;;;9.00;6.90;;;;;;;8.61;100.00;97610.25;3718989;78;42167;-27
2021/04/11 03:24:13;;;;;;;9.43;6.70;;;;;;;8.56;100.00;97609.08;3740017;78;43693;-27
2021/04/11 03:29:23;;;;;;;9.45;6.60;;;;;;;8.52;100.00;97606.39;3628263;80;43290;-29
2021/04/11 03:34:31;;;;;;;9.95;6.95;;;;;;;8.52;100.00;97595.65;3741616;78;43980;-28
2021/04/11 03:39:39;;;;;;;8.98;6.70;;;;;;;8.49;100.00;97598.17;3742464;78;44209;-27
2021/04/11 03:44:46;;;;;;;8.65;6.60;;;;;;;8.48;100.00;97595.16;3741924;78;44013;-27
2021/04/11 03:49:56;;;;;;;8.43;6.85;;;;;;;8.50;100.00;97601.20;3742665;78;44016;-26
2021/04/11 03:55:05;;;;;;;10.08;6.87;;;;;;;8.44;100.00;97593.28;3629445;80;43673;-27
2021/04/11 04:00:15;;;;;;;8.35;6.97;;;;;;;8.41;100.00;97600.84;3732907;78;43698;-27
2021/04/11 04:05:26;;;;;;;9.85;6.75;;;;;;;8.37;100.00;97598.97;3717229;78;26462;-26
2021/04/11 04:10:36;;;;;;;7.83;6.42;;;;;;;8.33;100.00;97598.99;3724045;78;26864;-27
2021/04/11 04:15:52;;;;;;;8.83;6.87;;;;;;;8.29;100.00;97603.00;3788427;78;26405;-27
2021/04/11 04:21:03;;;;;;;11.03;7.33;;;;;;;8.27;100.00;97603.67;3738762;78;26410;-27
2021/04/11 04:26:19;;;;;;;9.25;6.58;;;;;;;8.22;100.00;97597.47;3742505;78;44565;-27
2021/04/11 04:31:32;;;;;;;9.40;6.53;;;;;;;8.18;100.00;97600.13;3755696;78;44043;-27
2021/04/11 04:36:43;;;;;;;10.60;6.40;;;;;;;8.15;100.00;97602.66;3741376;78;43594;-26
2021/04/11 04:41:54;;;;;;;9.43;6.75;;;;;;;8.29;100.00;97606.51;3737805;78;26729;-27
2021/04/11 04:47:07;;;;;;;7.55;6.28;;;;;;;8.52;100.00;97607.73;3729235;78;43694;-27
2021/04/11 04:52:18;;;;;;;9.20;6.75;;;;;;;8.60;100.00;97611.26;3732166;78;27485;-27
2021/04/11 04:57:28;;;;;;;8.53;6.47;;;;;;;8.65;100.00;97606.72;3745870;78;42870;-27
2021/04/11 05:02:40;;;;;;;8.08;6.65;;;;;;;8.69;100.00;97611.24;3741746;78;43064;-27
2021/04/11 05:07:51;;;;;;;8.80;6.42;;;;;;;8.73;100.00;97608.05;3744641;78;43155;-27
2021/04/11 05:13:01;;;;;;;9.35;6.67;;;;;;;8.85;100.00;97602.32;3743919;78;43983;-27
2021/04/11 05:18:11;;;;;;;8.93;6.30;;;;;;;8.79;100.00;97592.61;3739247;78;43374;-27
2021/04/11 05:23:22;;;;;;;8.13;6.03;;;;;;;8.86;100.00;97602.66;3743604;76;27079;-27
2021/04/11 05:28:34;;;;;;;8.38;6.17;;;;;;;8.91;100.00;97594.42;3741455;78;43694;-27
2021/04/11 05:33:42;;;;;;;9.20;6.50;;;;;;;9.04;100.00;97595.73;3745357;78;42918;-27
2021/04/11 05:38:57;;;;;;;9.05;6.12;;;;;;;9.03;100.00;97596.26;3738809;78;43679;-27
2021/04/11 05:44:08;;;;;;;7.78;5.90;;;;;;;8.98;100.00;97599.13;3740448;78;43424;-27
2021/04/11 05:49:17;;;;;;;8.50;6.22;;;;;;;8.96;100.00;97593.08;3669551;80;43359;-27
2021/04/11 05:54:27;;;;;;;7.78;6.30;;;;;;;8.94;100.00;97592.74;3737869;78;43698;-27
2021/04/11 05:59:36;;;;;;;8.68;6.10;;;;;;;9.00;100.00;97595.73;3745317;78;43709;-27
2021/04/11 06:04:45;;;;;;;7.22;6.17;;;;;;;9.12;100.00;97598.91;3744996;78;43334;-27
2021/04/11 06:09:56;;;;;;;9.63;6.30;;;;;;;9.24;100.00;97595.67;3753380;78;44180;-27
2021/04/11 06:15:08;;;;;;;10.25;7.53;;;;;;;9.28;100.00;97589.47;3749283;78;43281;-27
2021/04/11 06:20:16;;;;;;;10.23;6.75;;;;;;;9.28;100.00;97587.27;3742958;78;44424;-27
2021/04/11 06:25:27;;;;;;;10.30;7.37;;;;;;;9.34;100.00;97595.48;3751798;77;44123;-27
2021/04/11 06:30:36;;;;;;;9.07;6.77;;;;;;;9.39;100.00;97598.98;3680443;79;70258;-27
2021/04/11 06:35:45;;;;;;;10.35;6.97;;;;;;;9.54;100.00;97595.91;3775675;76;43043;-28
2021/04/11 06:41:09;;;;;;;8.83;6.78;;;;;;;9.64;100.00;97601.56;3777921;76;43731;-27
2021/04/11 06:46:20;;;;;;;9.93;6.78;;;;;;;9.76;100.00;97601.51;3769488;76;43410;-26
2021/04/11 06:52:02;;;;;;;11.20;6.55;;;;;;;9.88;100.00;97597.89;3776209;76;44487;-26
2021/04/11 06:57:25;;;;;;;10.18;6.90;;;;;;;10.02;100.00;97605.73;3771948;76;42096;-26
2021/04/11 07:03:11;;;;;;;8.90;7.08;;;;;;;10.23;100.00;97606.94;3781392;76;43165;-27
2021/04/11 07:08:41;;;;;;;10.20;7.33;;;;;;;10.45;100.00;97612.03;3772449;76;43352;-26
2021/04/11 07:14:36;;;;;;;9.98;6.40;;;;;;;10.64;100.00;97597.23;3768183;76;43344;-27
2021/04/11 07:20:15;;;;;;;9.93;6.42;;;;;;;10.88;100.00;97584.02;3738843;76;43761;-26
2021/04/11 07:25:38;;;;;;;9.37;6.30;;;;;;;10.96;100.00;97581.76;3779623;76;43083;-26
2021/04/11 07:30:49;;;;;;;8.35;6.05;;;;;;;11.22;100.00;97568.34;3774392;76;44106;-26
2021/04/11 07:36:03;;;;;;;8.00;6.12;;;;;;;11.41;100.00;97556.97;3769884;76;44030;-26
2021/04/11 07:41:38;;;;;;;9.48;5.85;;;;;;;11.73;100.00;97559.42;3778506;76;43471;-27
2021/04/11 07:46:53;;;;;;;11.12;6.22;;;;;;;11.98;100.00;97561.81;3772697;76;44276;-24
2021/04/11 07:52:15;;;;;;;9.73;6.00;;;;;;;12.27;95.72;97555.45;3772426;76;43718;-23
2021/04/11 07:57:50;;;;;;;10.05;5.67;;;;;;;12.58;94.18;97558.30;3776251;76;44038;-24
2021/04/11 08:03:10;;;;;;;7.03;5.60;;;;;;;12.84;94.70;97554.63;3789800;76;44058;-23
2021/04/11 08:08:26;;;;;;;9.18;5.40;;;;;;;13.15;89.21;97554.75;3843139;76;43678;-24
2021/04/11 08:13:55;;;;;;;7.70;5.37;;;;;;;13.28;88.69;97555.32;3790382;76;43788;-23
2021/04/11 08:19:24;;;;;;;6.92;4.90;;;;;;;13.61;90.43;97547.40;3771976;76;43457;-23
2021/04/11 08:24:49;;;;;;;6.10;4.65;;;;;;;13.77;87.30;97547.55;3740826;76;44573;-24
2021/04/11 08:30:26;;;;;;;5.80;4.47;;;;;;;14.05;80.84;97550.66;3784545;76;44071;-25
2021/04/11 08:35:38;;;;;;;5.70;4.20;;;;;;;14.26;74.27;97554.23;3777509;76;43349;-24
2021/04/11 08:41:11;;;;;;;6.60;4.40;;;;;;;14.46;77.61;97549.66;3773148;76;43980;-24
2021/04/11 08:46:31;;;;;;;5.33;3.40;;;;;;;14.67;70.93;97546.95;3766963;76;44145;-24
2021/04/11 08:51:44;;;;;;;3.70;3.27;;;;;;;14.95;65.76;97544.84;3778796;76;43358;-25
2021/04/11 08:56:58;;;;;;;4.08;3.37;;;;;;;15.15;65.77;97551.28;3786014;76;46003;-25
2021/04/11 09:02:29;;;;;;;5.65;3.25;;;;;;;15.30;68.16;97556.45;3791518;76;43729;-25
2021/04/11 09:07:46;;;;;;;5.35;3.58;;;;;;;15.54;68.27;97564.44;3790885;76;43303;-25
2021/04/11 09:12:58;;;;;;;6.15;3.80;;;;;;;15.62;70.98;97574.23;3791449;76;43682;-25
2021/04/11 09:18:15;;;;;;;4.72;3.02;;;;;;;15.82;67.25;97576.83;3793515;76;44485;-24
2021/04/11 09:23:35;;;;;;;5.22;2.92;;;;;;;15.86;64.36;97581.67;3796302;76;43092;-24
2021/04/11 09:28:53;;;;;;;3.20;2.90;;;;;;;15.91;62.88;97589.17;3744489;77;42861;-24
2021/04/11 09:34:37;;;;;;;4.33;3.45;;;;;;;15.70;67.01;97578.87;3733376;77;43369;-25
2021/04/11 09:40:09;;;;;;;5.95;3.08;;;;;;;15.90;69.24;97567.13;3732606;77;43511;-25
2021/04/11 09:45:31;;;;;;;4.40;2.55;;;;;;;16.21;62.33;97563.30;3738447;77;43461;-26
2021/04/11 09:50:53;;;;;;;3.65;2.50;;;;;;;16.16;61.08;97568.04;3733045;77;42694;-25
2021/04/11 09:56:05;;;;;;;3.70;2.30;;;;;;;16.33;63.10;97565.62;3728251;76;43310;-25
2021/04/11 10:01:19;;;;;;;3.47;2.50;;;;;;;16.39;60.47;97550.33;3741983;78;43677;-24
2021/04/11 10:06:36;;;;;;;3.17;2.52;;;;;;;16.63;63.05;97540.50;3736567;78;43392;-26
2021/04/11 10:12:01;;;;;;;4.05;2.40;;;;;;;16.64;59.80;97532.11;3711872;78;43947;-25
2021/04/11 10:17:12;;;;;;;2.60;2.33;;;;;;;16.86;64.55;97533.60;3692272;78;44066;-26
2021/04/11 10:22:47;;;;;;;3.20;2.37;;;;;;;16.94;62.24;97539.63;3718156;78;44023;-25
2021/04/11 10:28:20;;;;;;;3.08;2.45;;;;;;;16.91;57.31;97525.08;3716713;78;44053;-25
2021/04/11 10:33:30;;;;;;;6.05;2.17;;;;;;;16.99;58.55;97521.81;3715716;78;43430;-22
2021/04/11 10:38:39;;;;;;;4.75;2.15;;;;;;;17.20;61.74;97522.73;3710034;78;43953;-22
2021/04/11 10:44:15;;;;;;;4.35;1.70;;;;;;;17.52;55.75;97510.30;3714257;78;44034;-24
2021/04/11 10:49:38;;;;;;;2.80;1.42;;;;;;;17.46;60.93;97512.59;3699752;78;43583;-23
2021/04/11 10:54:59;;;;;;;2.65;1.62;;;;;;;17.79;57.45;97505.88;3713031;77;44189;-22
2021/04/11 11:00:14;;;;;;;1.90;1.60;;;;;;;18.05;50.94;97512.02;3715804;78;43980;-22
2021/04/11 11:06:04;;;;;;;3.02;1.70;;;;;;;18.36;51.55;97513.34;3710404;78;43487;-21
2021/04/11 11:11:39;;;;;;;2.92;1.50;;;;;;;18.45;50.63;97520.15;3711575;78;43690;-21
2021/04/11 11:16:55;;;;;;;1.95;1.67;;;;;;;18.41;52.50;97523.85;3711068;78;44473;-21
2021/04/11 11:22:19;;;;;;;2.22;1.42;;;;;;;18.59;50.15;97523.48;3707867;78;44057;-22
2021/04/11 11:27:57;;;;;;;2.02;1.27;;;;;;;18.27;48.09;97518.33;3710996;78;44293;-21
2021/04/11 11:33:21;;;;;;;2.05;1.40;;;;;;;18.12;50.01;97517.38;3713070;78;43322;-21
2021/04/11 11:38:31;;;;;;;2.33;1.60;;;;;;;18.59;50.32;97515.30;3708031;78;44595;-22
2021/04/11 11:43:43;;;;;;;3.02;1.50;;;;;;;18.61;50.51;97503.63;3711851;78;44077;-21
2021/04/11 11:48:58;;;;;;;2.52;1.55;;;;;;;18.59;49.42;97503.02;3712255;78;43718;-21
2021/04/11 11:54:08;;;;;;;1.47;1.37;;;;;;;18.60;48.29;97505.50;3685169;78;43025;-21
2021/04/11 11:59:19;;;;;;;1.87;1.40;;;;;;;18.80;50.95;97502.98;3759661;77;44384;-23
2021/04/11 12:04:40;;;;;;;2.30;1.40;;;;;;;19.06;50.37;97489.92;3775945;77;44045;-23
2021/04/11 12:09:50;;;;;;;2.37;1.52;;;;;;;18.98;49.68;97487.05;3755765;77;42888;-22
2021/04/11 12:15:00;;;;;;;3.33;1.42;;;;;;;19.42;47.05;97480.31;3751135;77;43713;-22
2021/04/11 12:20:10;;;;;;;2.58;1.40;;;;;;;19.18;48.95;97476.27;3755845;77;43674;-22
2021/04/11 12:25:20;;;;;;;2.12;1.52;;;;;;;19.60;48.92;97475.21;3753594;77;43472;-21
2021/04/11 12:30:34;;;;;;;1.72;1.20;;;;;;;19.81;45.11;97481.91;3749571;77;43367;-22
2021/04/11 12:35:46;;;;;;;1.72;1.22;;;;;;;20.05;46.18;97489.47;3757047;77;43358;-22
2021/04/11 12:40:59;;;;;;;1.67;1.20;;;;;;;20.03;46.67;97488.07;3753280;77;43939;-22
2021/04/11 12:46:08;;;;;;;1.50;1.30;;;;;;;20.26;45.34;97483.84;3743502;77;44015;-22
2021/04/11 12:51:18;;;;;;;3.00;1.40;;;;;;;20.93;47.08;97471.22;3744618;77;44065;-22
2021/04/11 12:56:25;;;;;;;2.02;1.20;;;;;;;20.86;46.92;97476.06;3747507;77;43770;-22
2021/04/11 13:01:36;;;;;;;1.72;1.40;;;;;;;20.22;47.42;97476.38;3720475;78;44015;-22
2021/04/11 13:06:46;;;;;;;1.98;1.70;;;;;;;19.98;45.09;97478.69;3717746;78;44070;-22
2021/04/11 13:11:57;;;;;;;2.15;1.52;;;;;;;19.84;47.08;97482.77;3720735;78;44074;-22
2021/04/11 13:17:07;;;;;;;2.27;1.30;;;;;;;20.20;45.45;97483.44;3709611;78;44010;-22
2021/04/11 13:22:16;;;;;;;3.45;1.50;;;;;;;20.69;45.03;97480.67;3710169;78;43666;-22
2021/04/11 13:27:25;;;;;;;1.72;1.30;;;;;;;21.09;43.17;97482.39;3718246;78;42941;-21
2021/04/11 13:32:37;;;;;;;3.15;1.50;;;;;;;20.45;46.21;97486.32;3712734;78;43632;-22
2021/04/11 13:37:46;;;;;;;2.92;1.60;;;;;;;20.30;46.62;97486.34;3711850;78;44011;-22
2021/04/11 13:43:07;;;;;;;3.15;1.42;;;;;;;20.32;45.69;97482.84;3721216;78;42759;-23
2021/04/11 13:48:40;;;;;;;2.27;1.55;;;;;;;20.19;45.30;97487.25;3717840;78;43999;-21
2021/04/11 13:53:55;;;;;;;3.02;1.45;;;;;;;19.91;46.69;97484.02;3726961;78;43126;-22
2021/04/11 13:59:05;;;;;;;1.90;1.67;;;;;;;19.79;46.12;97482.68;3717898;77;44566;-22
2021/04/11 14:04:18;;;;;;;2.45;1.80;;;;;;;20.19;43.42;97477.68;3715563;78;44064;-22
2021/04/11 14:09:32;;;;;;;3.40;1.75;;;;;;;20.11;46.99;97480.27;3719814;78;44644;-22
2021/04/11 14:14:45;;;;;;;2.72;1.50;;;;;;;19.81;45.33;97476.44;3715938;78;44542;-21
2021/04/11 14:19:56;;;;;;;3.00;1.98;;;;;;;19.63;45.67;97474.18;3714800;78;44022;-22
2021/04/11 14:25:06;;;;;;;2.95;1.67;;;;;;;19.42;47.38;97493.97;3718957;77;44061;-25
2021/04/11 14:30:25;;;;;;;1.70;1.52;;;;;;;19.22;45.89;97487.83;3710395;78;43483;-25
2021/04/11 14:35:35;;;;;;;2.45;1.52;;;;;;;19.54;47.53;97477.02;3713248;78;44095;-25
2021/04/11 14:40:44;;;;;;;4.85;1.52;;;;;;;19.76;47.75;97484.53;3710419;78;43617;-25
2021/04/11 14:45:53;;;;;;;3.20;1.47;;;;;;;19.38;45.86;97488.16;3718042;78;43425;-25
2021/04/11 14:51:19;;;;;;;2.25;1.52;;;;;;;18.98;46.31;97493.87;3711288;78;43678;-27
2021/04/11 14:56:30;;;;;;;1.72;1.32;;;;;;;18.72;47.73;97500.07;3715489;77;44081;-25
2021/04/11 15:01:41;;;;;;;2.60;1.75;;;;;;;18.55;49.62;97498.58;3742099;77;43973;-24
2021/04/11 15:06:50;;;;;;;2.33;1.60;;;;;;;18.41;49.27;97498.49;3749050;77;43393;-24
2021/04/11 15:12:02;;;;;;;2.58;1.70;;;;;;;18.33;49.09;97499.14;3747157;77;44486;-20
2021/04/11 15:17:21;;;;;;;1.82;1.50;;;;;;;18.28;50.06;97499.55;3754923;77;43465;-20
2021/04/11 15:22:30;;;;;;;2.80;1.60;;;;;;;18.45;49.06;97511.42;3757137;77;43433;-21
2021/04/11 15:27:43;;;;;;;3.75;1.50;;;;;;;18.86;48.40;97491.66;3754788;77;44074;-24
2021/04/11 15:32:53;;;;;;;3.20;1.50;;;;;;;19.19;47.82;97487.49;3749563;77;43631;-24
2021/04/11 15:38:02;;;;;;;3.45;1.60;;;;;;;18.96;48.44;97492.43;3750092;77;43364;-24
2021/04/11 15:43:15;;;;;;;2.67;1.65;;;;;;;18.67;48.18;97497.75;3757873;77;44065;-24
2021/04/11 15:48:26;;;;;;;2.72;1.62;;;;;;;18.52;49.56;97494.95;3767286;77;44006;-24
2021/04/11 15:53:43;;;;;;;1.60;1.50;;;;;;;18.46;50.41;97487.18;3792005;77;44603;-25
2021/04/11 15:58:59;;;;;;;3.45;1.90;;;;;;;18.34;51.76;97493.15;3771998;77;44024;-24
2021/04/11 16:04:23;;;;;;;2.02;1.57;;;;;;;18.21;52.81;97496.08;3754324;77;44567;-24
2021/04/11 16:09:31;;;;;;;2.77;2.02;;;;;;;18.04;52.54;97500.85;3755152;77;43680;-25
2021/04/11 16:14:41;;;;;;;1.57;1.42;;;;;;;17.93;51.96;97505.16;3757463;77;43681;-25
2021/04/11 16:19:55;;;;;;;2.60;1.50;;;;;;;17.87;52.58;97507.45;3747837;77;43994;-25
2021/04/11 16:25:20;;;;;;;1.52;1.40;;;;;;;17.72;54.16;97509.20;3754870;77;43985;-25
2021/04/11 16:30:30;;;;;;;2.27;1.60;;;;;;;17.52;53.63;97516.30;3752999;77;44597;-24
2021/04/11 16:35:40;;;;;;;3.17;1.67;;;;;;;17.35;55.52;97532.39;3747140;77;44214;-24
2021/04/11 16:40:55;;;;;;;2.55;1.80;;;;;;;17.20;57.39;97532.26;3756064;77;44279;-25
2021/04/11 16:46:05;;;;;;;3.25;1.80;;;;;;;17.05;57.03;97544.84;3749268;77;43333;-25
2021/04/11 16:51:15;;;;;;;2.20;1.30;;;;;;;16.97;59.36;97554.66;3753388;77;43168;-25
2021/04/11 16:56:30;;;;;;;3.87;1.00;;;;;;;16.47;57.90;97593.00;3753249;77;44053;-25
2021/04/11 17:01:43;;;;;;;2.58;1.20;;;;;;;15.20;72.74;97636.95;3709316;77;43297;-25
2021/04/11 17:06:56;;;;;;;2.65;1.60;;;;;;;13.65;100.00;97650.67;3713471;78;43721;-24
2021/04/11 17:12:05;;;;;;;3.58;2.00;;;;;;;12.95;100.00;97615.77;3704584;78;43678;-24
2021/04/11 17:17:15;;;;;;;2.60;1.75;;;;;;;12.71;100.00;97610.78;3707976;78;43329;-24
2021/04/11 17:22:33;;;;;;;3.10;2.37;;;;;;;12.48;100.00;97634.80;3711525;78;44462;-24
2021/04/11 17:27:45;;;;;;;5.03;4.40;;;;;;;12.23;100.00;97636.52;3711496;78;43697;-24
2021/04/11 17:32:55;;;;;;;7.40;5.12;;;;;;;11.77;100.00;97660.54;3710853;78;44034;-24
2021/04/11 17:38:11;;;;;;;6.17;5.15;;;;;;;10.81;100.00;97663.06;3713197;78;43694;-23
2021/04/11 17:43:27;;;;;;;6.28;5.28;;;;;;;10.33;100.00;97688.30;3742615;78;44073;-24
2021/04/11 17:48:42;;;;;;;6.80;4.83;;;;;;;9.90;100.00;97692.72;3724419;78;44099;-24
2021/04/11 17:54:16;;;;;;;6.80;5.37;;;;;;;9.67;100.00;97710.97;3739644;78;43241;-24
2021/04/11 17:59:25;;;;;;;5.80;4.37;;;;;;;9.53;100.00;97743.95;3719393;77;44870;-23
2021/04/11 18:04:39;;;;;;;6.10;4.65;;;;;;;9.25;100.00;97750.55;3752031;77;43071;-24
2021/04/11 18:09:50;;;;;;;5.15;4.50;;;;;;;9.02;100.00;97765.67;3748803;77;44044;-22
2021/04/11 18:15:00;;;;;;;6.17;4.72;;;;;;;8.82;100.00;97771.38;3753887;77;43425;-23
2021/04/11 18:20:14;;;;;;;5.75;4.78;;;;;;;8.59;100.00;97784.58;3747729;77;43169;-24
2021/04/11 18:25:25;;;;;;;4.80;4.30;;;;;;;8.38;100.00;97817.23;3767508;77;44828;-24
2021/04/11 18:30:36;;;;;;;4.30;3.60;;;;;;;8.23;100.00;97835.80;3749020;77;44195;-24
2021/04/11 18:35:49;;;;;;;5.08;3.70;;;;;;;8.00;100.00;97854.61;3756556;77;42850;-23
2021/04/11 18:41:07;;;;;;;3.87;3.30;;;;;;;7.81;100.00;97856.19;3749412;77;64873;-23
2021/04/11 18:46:16;;;;;;;4.17;2.98;;;;;;;7.61;100.00;97891.73;3755827;77;43023;-23
2021/04/11 18:51:27;;;;;;;3.17;2.87;;;;;;;7.41;100.00;97910.64;3753250;77;73471;-23
2021/04/11 18:56:54;;;;;;;2.80;2.40;;;;;;;7.23;100.00;97922.21;3749966;77;43459;-27
2021/04/11 19:02:03;;;;;;;2.72;2.50;;;;;;;7.03;100.00;97939.42;3745279;77;43658;-24
2021/04/11 19:07:12;;;;;;;2.37;2.15;;;;;;;6.97;100.00;97938.66;3747132;77;43350;-25
2021/04/11 19:12:38;;;;;;;2.00;1.82;;;;;;;6.93;100.00;97949.70;3727081;77;43376;-25
2021/04/11 19:17:57;;;;;;;2.17;1.65;;;;;;;6.90;100.00;97953.15;3750745;77;44655;-26
2021/04/11 19:23:34;;;;;;;1.77;1.57;;;;;;;6.66;100.00;97985.83;3732905;77;44082;-26
2021/04/11 19:29:07;;;;;;;1.50;1.40;;;;;;;6.36;100.00;98007.33;3733263;77;43583;-26
2021/04/11 19:35:11;;;;;;;1.25;1.10;;;;;;;6.08;100.00;98043.34;3734332;77;73303;-26
2021/04/11 19:40:51;;;;;;;1.23;1.13;;;;;;;5.76;100.00;98027.58;3668059;77;43218;-27
2021/04/11 19:46:28;;;;;;;1.40;1.30;;;;;;;5.60;100.00;98041.47;3727581;77;73244;-26
2021/04/11 19:52:07;;;;;;;1.47;1.30;;;;;;;5.56;100.00;98068.97;3721571;77;44061;-26
2021/04/11 19:57:35;;;;;;;2.58;1.40;;;;;;;5.48;100.00;98072.32;3745411;77;45124;-25
2021/04/11 20:03:11;;;;;;;1.32;1.22;;;;;;;5.42;100.00;98107.62;3743970;77;44563;-24
2021/04/11 20:08:23;;;;;;;1.85;1.72;;;;;;;5.30;100.00;98127.40;3743505;77;73274;-26
2021/04/11 20:14:03;;;;;;;4.43;2.83;;;;;;;5.15;100.00;98145.12;3739031;77;43714;-25
2021/04/11 20:19:30;;;;;;;2.70;2.50;;;;;;;4.99;100.00;98168.80;3730853;77;43685;-25
2021/04/11 20:24:50;;;;;;;2.70;2.50;;;;;;;4.50;100.00;98177.80;3731488;77;44050;-25
2021/04/11 20:29:59;;;;;;;2.80;2.60;;;;;;;4.29;100.00;98168.80;3739701;77;43479;-25
2021/04/11 20:35:35;;;;;;;2.53;2.33;;;;;;;4.15;100.00;98143.79;3731892;77;44074;-25
2021/04/11 20:40:47;;;;;;;2.20;2.00;;;;;;;4.18;100.00;98160.84;3727748;77;43444;-26
2021/04/11 20:46:01;;;;;;;2.97;2.30;;;;;;;4.00;100.00;98165.87;3735738;77;43952;-26
2021/04/11 20:51:11;;;;;;;3.50;2.37;;;;;;;3.97;100.00;98158.98;3742684;77;43278;-26
2021/04/11 20:56:52;;;;;;;2.43;2.23;;;;;;;3.89;100.00;98161.91;3733903;77;43718;-26
2021/04/11 21:02:03;;;;;;;2.17;1.97;;;;;;;3.77;100.00;98194.41;3720884;77;43388;-26
2021/04/11 21:07:17;;;;;;;3.23;2.03;;;;;;;3.60;100.00;98211.25;3683801;79;44067;-26
2021/04/11 21:12:53;;;;;;;2.03;1.90;;;;;;;3.42;100.00;98204.73;3688104;79;43416;-26
2021/04/11 21:18:42;;;;;;;2.00;1.80;;;;;;;3.28;100.00;98216.48;3679898;79;44190;-26
2021/04/11 21:24:13;;;;;;;2.37;2.17;;;;;;;3.22;100.00;98214.65;3688182;79;44164;-26
2021/04/11 21:29:40;;;;;;;2.47;2.23;;;;;;;3.22;100.00;98231.12;3723360;79;43087;-26
2021/04/11 21:35:17;;;;;;;2.93;2.63;;;;;;;3.29;100.00;98236.81;3674636;79;44032;-27
2021/04/11 21:40:26;;;;;;;2.67;2.43;;;;;;;3.39;100.00;98230.63;3704731;78;43507;-27
2021/04/11 21:45:40;;;;;;;2.87;2.57;;;;;;;3.45;100.00;98247.95;3684874;79;44085;-27
2021/04/11 21:50:58;;;;;;;2.53;2.33;;;;;;;3.49;100.00;98268.52;3692705;79;44018;-27
2021/04/11 21:56:16;;;;;;;3.10;2.50;;;;;;;3.43;100.00;98263.69;3689939;79;43378;-26
2021/04/11 22:01:37;;;;;;;2.93;2.50;;;;;;;3.48;100.00;98271.69;3699892;78;43503;-27
2021/04/11 22:06:48;;;;;;;2.73;2.43;;;;;;;3.32;100.00;98285.81;3713816;78;44087;-27
2021/04/11 22:11:57;;;;;;;3.93;3.47;;;;;;;3.22;100.00;98281.70;3713886;78;43382;-26
2021/04/11 22:17:06;;;;;;;4.83;3.83;;;;;;;3.04;100.00;98304.75;3718869;78;44754;-26
2021/04/11 22:22:15;;;;;;;4.87;3.67;;;;;;;3.03;100.00;98315.03;3722197;78;43439;-26
2021/04/11 22:27:25;;;;;;;4.43;3.43;;;;;;;2.88;100.00;98325.52;3710891;78;44393;-26
2021/04/11 22:32:33;;;;;;;4.43;3.60;;;;;;;2.80;100.00;98346.51;3720060;78;43952;-26
2021/04/11 22:37:47;;;;;;;4.80;3.50;;;;;;;2.72;100.00;98357.25;3709290;78;43708;-26
2021/04/11 22:42:56;;;;;;;5.37;4.00;;;;;;;2.52;100.00;98342.75;3722900;78;44070;-26
2021/04/11 22:48:05;;;;;;;5.87;3.83;;;;;;;2.38;100.00;98318.97;3562228;81;43271;-27
2021/04/11 22:53:14;;;;;;;5.03;3.53;;;;;;;2.27;100.00;98328.58;3726065;78;43431;-27
2021/04/11 22:58:26;;;;;;;5.87;3.70;;;;;;;2.22;100.00;98344.03;3722260;78;44062;-26
2021/04/11 23:03:39;;;;;;;4.53;3.57;;;;;;;2.17;100.00;98366.58;3723742;77;44071;-26
2021/04/11 23:08:48;;;;;;;4.90;3.73;;;;;;;2.14;100.00;98387.09;3718798;78;43318;-27
2021/04/11 23:14:03;;;;;;;4.83;3.70;;;;;;;2.17;100.00;98390.50;3722099;78;44122;-27
2021/04/11 23:19:13;;;;;;;5.03;3.63;;;;;;;2.13;100.00;98396.03;3728233;78;43990;-27
2021/04/11 23:24:26;;;;;;;5.97;3.43;;;;;;;1.90;100.00;98396.80;3752012;78;43469;-27
2021/04/11 23:29:36;;;;;;;5.23;3.60;;;;;;;1.85;100.00;98401.94;3732984;78;44105;-25
2021/04/11 23:34:46;;;;;;;5.50;3.97;;;;;;;1.85;100.00;98415.22;3743545;78;43453;-25
2021/04/11 23:39:55;;;;;;;6.07;3.60;;;;;;;1.85;100.00;98419.70;3724661;78;44474;-25
2021/04/11 23:45:05;;;;;;;6.13;4.10;;;;;;;1.84;100.00;98430.78;3720687;78;44860;-26
2021/04/11 23:50:14;;;;;;;5.37;3.87;;;;;;;1.69;100.00;98446.47;3717791;78;43408;-26
2021/04/11 23:55:24;;;;;;;4.60;3.70;;;;;;;1.75;100.00;98442.54;3719792;78;43440;-27
